createdAt,value
2022-08-01T00:00:13.058Z,97399.41
2022-08-01T00:02:42.583Z,97389.81
2022-08-01T00:05:11.616Z,97397.44
2022-08-01T00:07:41.606Z,97401.16
2022-08-01T00:10:12.242Z,97406.66
2022-08-01T00:12:41.415Z,97403.72
2022-08-01T00:15:11.605Z,97401.38
2022-08-01T00:17:40.590Z,97410.00
2022-08-01T00:20:14.188Z,97407.66
2022-08-01T00:22:43.878Z,97398.22
2022-08-01T00:25:11.948Z,97408.81
2022-08-01T00:27:40.359Z,97401.06
2022-08-01T00:30:13.090Z,97397.72
2022-08-01T00:32:42.913Z,97392.88
2022-08-01T00:35:11.515Z,97397.16
2022-08-01T00:37:39.494Z,97388.41
2022-08-01T00:40:10.111Z,97390.31
2022-08-01T00:42:43.026Z,97398.91
2022-08-01T00:45:12.235Z,97386.69
2022-08-01T00:47:40.995Z,97393.72
2022-08-01T00:50:10.584Z,97399.50
2022-08-01T00:52:39.297Z,97402.19
2022-08-01T00:55:14.942Z,97395.16
2022-08-01T00:58:03.477Z,97389.47
2022-08-01T01:00:33.829Z,97388.75
2022-08-01T01:03:23.586Z,97390.75
2022-08-01T01:06:07.775Z,97385.75
2022-08-01T01:09:25.391Z,97393.47
2022-08-01T01:12:03.212Z,97393.59
2022-08-01T01:14:37.234Z,97387.06
2022-08-01T01:17:09.205Z,97385.34
2022-08-01T01:19:43.704Z,97387.53
2022-08-01T01:22:38.895Z,97394.81
2022-08-01T01:25:24.087Z,97390.88
2022-08-01T01:28:07.723Z,97410.13
2022-08-01T01:30:38.959Z,97410.44
2022-08-01T01:33:12.022Z,97419.75
2022-08-01T01:35:46.993Z,97414.97
2022-08-01T01:38:20.552Z,97409.91
2022-08-01T01:40:49.887Z,97415.28
2022-08-01T01:43:19.495Z,97413.03
2022-08-01T01:45:50.772Z,97408.03
2022-08-01T01:48:22.539Z,97401.47
2022-08-01T01:50:53.402Z,97405.69
2022-08-01T01:53:24.517Z,97404.44
2022-08-01T01:55:56.339Z,97410.63
2022-08-01T01:58:25.874Z,97409.28
2022-08-01T02:00:57.770Z,97407.06
2022-08-01T02:03:28.166Z,97415.75
2022-08-01T02:05:58.548Z,97424.97
2022-08-01T02:08:27.551Z,97424.34
2022-08-01T02:11:18.444Z,97425.28
2022-08-01T02:13:50.265Z,97419.50
2022-08-01T02:16:20.392Z,97425.44
2022-08-01T02:18:48.557Z,97431.09
2022-08-01T02:21:23.301Z,97436.84
2022-08-01T02:23:53.531Z,97425.50
2022-08-01T02:26:25.228Z,97427.00
2022-08-01T02:28:58.893Z,97434.28
2022-08-01T02:31:32.449Z,97429.84
2022-08-01T02:34:06.402Z,97433.69
2022-08-01T02:36:37.431Z,97439.06
2022-08-01T02:39:10.702Z,97437.38
2022-08-01T02:41:43.944Z,97446.06
2022-08-01T02:44:17.974Z,97441.44
2022-08-01T02:46:53.499Z,97444.09
2022-08-01T02:49:23.046Z,97445.69
2022-08-01T02:51:53.135Z,97444.81
2022-08-01T02:54:24.328Z,97446.75
2022-08-01T02:56:53.877Z,97450.06
2022-08-01T02:59:27.018Z,97446.34
2022-08-01T03:01:58.688Z,97440.75
2022-08-01T03:04:29.517Z,97439.25
2022-08-01T03:06:59.619Z,97448.59
2022-08-01T03:09:29.616Z,97446.31
2022-08-01T03:12:01.023Z,97447.78
2022-08-01T03:14:31.735Z,97448.94
2022-08-01T03:17:02.492Z,97453.25
2022-08-01T03:19:32.944Z,97456.16
2022-08-01T03:22:04.554Z,97461.28
2022-08-01T03:24:36.159Z,97458.47
2022-08-01T03:27:05.882Z,97459.75
2022-08-01T03:29:36.405Z,97460.13
2022-08-01T03:32:07.477Z,97473.34
2022-08-01T03:34:36.036Z,97466.88
2022-08-01T03:37:09.337Z,97470.13
2022-08-01T03:39:46.189Z,97471.81
2022-08-01T03:42:18.202Z,97467.03
2022-08-01T03:44:55.289Z,97479.38
2022-08-01T03:47:31.430Z,97486.22
2022-08-01T03:50:01.479Z,97477.78
2022-08-01T03:52:31.895Z,97487.41
2022-08-01T03:55:03.703Z,97484.41
2022-08-01T03:57:36.768Z,97480.44
2022-08-01T04:00:10.412Z,97481.53
2022-08-01T04:02:41.284Z,97482.03
2022-08-01T04:05:10.470Z,97479.16
2022-08-01T04:07:40.244Z,97476.97
2022-08-01T04:10:09.169Z,97480.72
2022-08-01T04:12:37.207Z,97473.25
2022-08-01T04:15:06.626Z,97479.50
2022-08-01T04:17:34.566Z,97473.06
2022-08-01T04:20:04.610Z,97478.00
2022-08-01T04:22:32.824Z,97482.44
2022-08-01T04:25:11.955Z,97484.38
2022-08-01T04:27:48.718Z,97477.75
2022-08-01T04:30:24.081Z,97471.34
2022-08-01T04:32:55.555Z,97480.34
2022-08-01T04:36:02.429Z,97475.47
2022-08-01T04:38:19.715Z,97473.06
2022-08-01T04:40:48.563Z,97474.66
2022-08-01T04:43:16.895Z,97477.13
2022-08-01T04:45:46.505Z,97486.84
2022-08-01T04:48:17.439Z,97486.44
2022-08-01T04:50:47.555Z,97494.63
2022-08-01T04:53:17.777Z,97493.50
2022-08-01T04:55:47.369Z,97493.81
2022-08-01T04:58:18.527Z,97498.59
2022-08-01T05:00:47.581Z,97517.06
2022-08-01T05:03:15.808Z,97515.47
2022-08-01T05:05:44.154Z,97520.66
2022-08-01T05:08:13.442Z,97531.34
2022-08-01T05:10:41.759Z,97527.34
2022-08-01T05:13:09.916Z,97535.63
2022-08-01T05:15:39.106Z,97538.34
2022-08-01T05:18:08.808Z,97526.03
2022-08-01T05:20:38.044Z,97529.22
2022-08-01T05:23:06.560Z,97524.63
2022-08-01T05:25:56.818Z,97531.34
2022-08-01T05:28:26.035Z,97538.56
2022-08-01T05:30:56.252Z,97534.34
2022-08-01T05:33:24.433Z,97533.31
2022-08-01T05:35:52.938Z,97538.84
2022-08-01T05:38:20.929Z,97534.44
2022-08-01T05:40:50.789Z,97534.06
2022-08-01T05:43:18.838Z,97537.38
2022-08-01T05:45:47.371Z,97533.53
2022-08-01T05:48:15.328Z,97527.13
2022-08-01T05:50:43.724Z,97531.19
2022-08-01T05:53:11.667Z,97532.28
2022-08-01T05:55:40.061Z,97535.91
2022-08-01T05:58:12.546Z,97532.38
2022-08-01T06:00:41.139Z,97532.44
2022-08-01T06:03:09.043Z,97533.28
2022-08-01T06:05:37.473Z,97533.72
2022-08-01T06:08:05.916Z,97526.91
2022-08-01T06:10:34.395Z,97535.28
2022-08-01T06:13:04.022Z,97536.00
2022-08-01T06:15:34.237Z,97540.03
2022-08-01T06:18:02.738Z,97541.94
2022-08-01T06:20:31.107Z,97542.38
2022-08-01T06:22:59.884Z,97541.59
2022-08-01T06:25:29.418Z,97544.78
2022-08-01T06:27:57.426Z,97549.47
2022-08-01T06:30:25.759Z,97554.31
2022-08-01T06:32:56.858Z,97553.88
2022-08-01T06:35:24.871Z,97555.06
2022-08-01T06:37:52.800Z,97558.47
2022-08-01T06:40:20.802Z,97555.50
2022-08-01T06:42:48.730Z,97564.50
2022-08-01T06:45:17.501Z,97559.47
2022-08-01T06:47:49.474Z,97558.50
2022-08-01T06:50:21.094Z,97556.59
2022-08-01T06:52:49.111Z,97559.41
2022-08-01T06:55:17.459Z,97566.56
2022-08-01T06:57:49.851Z,97559.66
2022-08-01T07:00:20.274Z,97560.56
2022-08-01T07:02:48.794Z,97566.97
2022-08-01T07:05:17.181Z,97571.75
2022-08-01T07:07:46.621Z,97556.28
2022-08-01T07:10:15.336Z,97566.78
2022-08-01T07:12:43.436Z,97557.13
2022-08-01T07:15:13.320Z,97558.03
2022-08-01T07:17:41.931Z,97556.91
2022-08-01T07:20:11.719Z,97565.00
2022-08-01T07:22:42.304Z,97566.41
2022-08-01T07:25:12.900Z,97557.06
2022-08-01T07:27:40.839Z,97564.09
2022-08-01T07:30:10.078Z,97569.03
2022-08-01T07:32:38.085Z,97564.97
2022-08-01T07:35:07.106Z,97564.25
2022-08-01T07:37:48.374Z,97558.59
2022-08-01T07:40:20.452Z,97562.47
2022-08-01T07:42:49.290Z,97561.94
2022-08-01T07:45:18.026Z,97575.19
2022-08-01T07:47:46.324Z,97576.75
2022-08-01T07:50:15.090Z,97572.31
2022-08-01T07:52:43.433Z,97573.63
2022-08-01T07:55:16.183Z,97565.25
2022-08-01T07:57:46.218Z,97559.25
2022-08-01T08:00:15.846Z,97555.63
2022-08-01T08:02:45.089Z,97558.75
2022-08-01T08:05:14.068Z,97550.78
2022-08-01T08:07:42.006Z,97551.91
2022-08-01T08:10:10.873Z,97564.72
2022-08-01T08:12:39.567Z,97557.25
2022-08-01T08:15:10.275Z,97564.44
2022-08-01T08:17:38.900Z,97564.34
2022-08-01T08:20:09.663Z,97565.38
2022-08-01T08:22:38.808Z,97562.94
2022-08-01T08:25:08.567Z,97558.16
2022-08-01T08:27:37.428Z,97564.47
2022-08-01T08:30:09.849Z,97559.66
2022-08-01T08:32:38.286Z,97548.25
2022-08-01T08:35:07.847Z,97550.22
2022-08-01T08:37:38.004Z,97555.88
2022-08-01T08:40:16.969Z,97554.66
2022-08-01T08:42:47.377Z,97555.53
2022-08-01T08:45:17.211Z,97548.88
2022-08-01T08:47:48.015Z,97552.34
2022-08-01T08:50:16.496Z,97562.66
2022-08-01T08:52:47.134Z,97555.53
2022-08-01T08:55:16.473Z,97551.25
2022-08-01T08:57:46.446Z,97549.84
2022-08-01T09:00:17.656Z,97560.84
2022-08-01T09:02:47.830Z,97556.00
2022-08-01T09:05:19.472Z,97550.25
2022-08-01T09:07:48.037Z,97555.34
2022-08-01T09:10:16.483Z,97564.75
2022-08-01T09:13:06.101Z,97565.59
2022-08-01T09:15:42.948Z,97567.00
2022-08-01T09:18:27.238Z,97568.09
2022-08-01T09:21:10.742Z,97564.19
2022-08-01T09:23:54.024Z,97564.34
2022-08-01T09:26:30.979Z,97568.34
2022-08-01T09:29:00.202Z,97568.19
2022-08-01T09:31:38.193Z,97564.19
2022-08-01T09:34:08.554Z,97565.56
2022-08-01T09:36:49.871Z,97569.78
2022-08-01T09:39:18.126Z,97571.28
2022-08-01T09:41:46.420Z,97565.28
2022-08-01T09:44:15.026Z,97569.06
2022-08-01T09:46:57.452Z,97567.09
2022-08-01T09:49:50.448Z,97575.06
2022-08-01T09:52:26.179Z,97566.34
2022-08-01T09:55:00.538Z,97577.00
2022-08-01T09:57:30.403Z,97572.19
2022-08-01T10:00:02.099Z,97577.78
2022-08-01T10:02:36.593Z,97572.81
2022-08-01T10:05:08.410Z,97575.63
2022-08-01T10:07:43.627Z,97571.84
2022-08-01T10:10:14.725Z,97577.00
2022-08-01T10:12:45.355Z,97561.34
2022-08-01T10:15:18.106Z,97570.19
2022-08-01T10:17:57.136Z,97569.47
2022-08-01T10:20:30.512Z,97557.34
2022-08-01T10:23:06.234Z,97565.84
2022-08-01T10:25:42.541Z,97558.38
2022-08-01T10:28:21.801Z,97567.59
2022-08-01T10:30:53.285Z,97573.50
2022-08-01T10:33:51.062Z,97574.34
2022-08-01T10:36:14.573Z,97571.31
2022-08-01T10:38:45.388Z,97573.38
2022-08-01T10:41:16.315Z,97574.22
2022-08-01T10:43:46.887Z,97581.66
2022-08-01T10:46:15.194Z,97591.69
2022-08-01T10:48:53.607Z,97586.53
2022-08-01T10:51:26.888Z,97594.22
2022-08-01T10:54:12.529Z,97581.94
2022-08-01T10:56:42.894Z,97579.63
2022-08-01T10:59:12.085Z,97591.34
2022-08-01T11:01:45.415Z,97595.69
2022-08-01T11:04:18.236Z,97600.53
2022-08-01T11:07:06.898Z,97589.03
2022-08-01T11:09:49.469Z,97589.38
2022-08-01T11:12:23.017Z,97601.16
2022-08-01T11:15:29.139Z,97601.16
2022-08-01T11:18:01.240Z,97596.53
2022-08-01T11:20:32.865Z,97591.25
2022-08-01T11:23:36.105Z,97590.06
2022-08-01T11:26:29.131Z,97594.03
2022-08-01T11:29:21.690Z,97593.09
2022-08-01T11:31:51.176Z,97595.09
2022-08-01T11:34:19.857Z,97598.31
2022-08-01T11:37:05.262Z,97602.25
2022-08-01T11:39:38.335Z,97594.09
2022-08-01T11:42:23.583Z,97612.94
2022-08-01T11:44:56.327Z,97610.00
2022-08-01T11:47:45.695Z,97604.88
2022-08-01T11:50:38.006Z,97600.34
2022-08-01T11:53:11.268Z,97593.31
2022-08-01T11:55:51.259Z,97596.44
2022-08-01T11:58:27.620Z,97598.81
2022-08-01T12:01:00.512Z,97608.72
2022-08-01T12:03:33.543Z,97610.44
2022-08-01T12:06:02.346Z,97604.16
2022-08-01T12:08:34.406Z,97596.94
2022-08-01T12:11:02.883Z,97607.94
2022-08-01T12:13:43.014Z,97598.91
2022-08-01T12:16:12.833Z,97600.84
2022-08-01T12:18:41.495Z,97596.94
2022-08-01T12:24:05.209Z,97588.34
2022-08-01T12:26:43.137Z,97581.16
2022-08-01T12:29:11.101Z,97580.50
2022-08-01T12:31:39.457Z,97585.84
2022-08-01T12:34:30.029Z,97580.59
2022-08-01T12:37:00.845Z,97576.41
2022-08-01T12:39:34.729Z,97566.47
2022-08-01T12:42:03.201Z,97561.19
2022-08-01T12:44:33.095Z,97561.38
2022-08-01T12:47:02.167Z,97564.63
2022-08-01T12:49:30.522Z,97565.03
2022-08-01T12:51:59.269Z,97575.69
2022-08-01T12:54:27.358Z,97574.31
2022-08-01T12:56:58.453Z,97565.28
2022-08-01T12:59:28.659Z,97565.06
2022-08-01T13:01:59.527Z,97556.88
2022-08-01T13:04:27.610Z,97559.09
2022-08-01T13:06:56.293Z,97561.47
2022-08-01T13:09:24.316Z,97557.31
2022-08-01T13:12:03.762Z,97558.78
2022-08-01T13:14:34.116Z,97560.59
2022-08-01T13:17:02.605Z,97558.66
2022-08-01T13:19:45.694Z,97551.03
2022-08-01T13:22:13.986Z,97552.06
2022-08-01T13:24:41.946Z,97546.38
2022-08-01T13:27:22.165Z,97545.13
2022-08-01T13:29:53.946Z,97549.97
2022-08-01T13:32:29.733Z,97555.78
2022-08-01T13:35:03.399Z,97544.25
2022-08-01T13:37:33.358Z,97549.97
2022-08-01T13:40:01.357Z,97545.72
2022-08-01T13:42:30.887Z,97541.00
2022-08-01T13:45:00.307Z,97539.19
2022-08-01T13:47:31.303Z,97533.00
2022-08-01T13:50:01.720Z,97536.25
2022-08-01T13:52:30.861Z,97542.66
2022-08-01T13:54:58.973Z,97538.38
2022-08-01T13:57:36.647Z,97541.25
2022-08-01T14:00:09.477Z,97534.44
2022-08-01T14:02:37.965Z,97535.94
2022-08-01T14:05:06.789Z,97537.31
2022-08-01T14:07:35.163Z,97537.63
2022-08-01T14:10:04.764Z,97528.41
2022-08-01T14:12:47.066Z,97529.53
2022-08-01T14:15:26.318Z,97528.28
2022-08-01T14:18:10.520Z,97530.38
2022-08-01T14:20:41.190Z,97528.56
2022-08-01T14:23:09.697Z,97535.22
2022-08-01T14:26:03.205Z,97534.91
2022-08-01T14:28:28.733Z,97531.50
2022-08-01T14:30:58.866Z,97535.88
2022-08-01T14:33:27.802Z,97528.59
2022-08-01T14:36:06.800Z,97531.78
2022-08-01T14:38:46.282Z,97531.31
2022-08-01T14:41:15.209Z,97536.69
2022-08-01T14:43:43.207Z,97529.06
2022-08-01T14:46:13.558Z,97521.47
2022-08-01T14:48:42.083Z,97531.25
2022-08-01T14:51:10.184Z,97532.19
2022-08-01T14:53:53.209Z,97527.47
2022-08-01T14:56:21.715Z,97529.44
2022-08-01T14:58:50.063Z,97521.44
2022-08-01T15:01:19.715Z,97530.94
2022-08-01T15:03:49.821Z,97525.88
2022-08-01T15:06:17.890Z,97526.00
2022-08-01T15:08:46.310Z,97517.44
2022-08-01T15:11:14.370Z,97524.72
2022-08-01T15:13:45.891Z,97526.22
2022-08-01T15:16:13.861Z,97530.81
2022-08-01T15:18:43.721Z,97533.59
2022-08-01T15:21:20.671Z,97534.88
2022-08-01T15:23:57.557Z,97532.38
2022-08-01T15:26:25.571Z,97532.81
2022-08-01T15:28:54.391Z,97528.84
2022-08-01T15:32:18.045Z,97532.88
2022-08-01T15:35:07.896Z,97539.44
2022-08-01T15:37:52.345Z,97532.81
2022-08-01T15:40:21.661Z,97532.03
2022-08-01T15:42:50.275Z,97534.50
2022-08-01T15:45:45.787Z,97536.44
2022-08-01T15:48:08.184Z,97530.94
2022-08-01T15:50:39.318Z,97530.34
2022-08-01T15:53:08.358Z,97525.38
2022-08-01T15:55:38.235Z,97528.56
2022-08-01T15:58:06.708Z,97530.41
2022-08-01T16:00:39.308Z,97529.16
2022-08-01T16:03:08.166Z,97526.09
2022-08-01T16:05:42.839Z,97521.63
2022-08-01T16:08:11.704Z,97519.97
2022-08-01T16:10:39.739Z,97515.28
2022-08-01T16:13:08.166Z,97518.69
2022-08-01T16:15:37.452Z,97518.44
2022-08-01T16:18:06.428Z,97527.44
2022-08-01T16:20:34.496Z,97525.06
2022-08-01T16:23:04.373Z,97510.69
2022-08-01T16:25:32.354Z,97516.44
2022-08-01T16:28:00.807Z,97516.72
2022-08-01T16:30:29.018Z,97516.84
2022-08-01T16:33:00.661Z,97506.91
2022-08-01T16:35:36.762Z,97504.00
2022-08-01T16:38:07.156Z,97506.22
2022-08-01T16:40:47.251Z,97493.56
2022-08-01T16:43:16.879Z,97499.13
2022-08-01T16:45:45.491Z,97499.16
2022-08-01T16:48:15.739Z,97504.09
2022-08-01T16:50:44.082Z,97504.88
2022-08-01T16:53:14.611Z,97498.13
2022-08-01T16:55:49.445Z,97500.34
2022-08-01T16:58:22.269Z,97495.56
2022-08-01T17:00:57.589Z,97495.25
2022-08-01T17:03:52.577Z,97497.31
2022-08-01T17:06:22.411Z,97500.25
2022-08-01T17:08:52.358Z,97504.97
2022-08-01T17:11:20.339Z,97509.13
2022-08-01T17:13:49.302Z,97502.31
2022-08-01T17:16:17.687Z,97507.69
2022-08-01T17:18:46.212Z,97499.72
2022-08-01T17:21:14.126Z,97508.47
2022-08-01T17:23:42.074Z,97506.81
2022-08-01T17:26:11.759Z,97511.09
2022-08-01T17:28:40.732Z,97510.75
2022-08-01T17:31:10.595Z,97513.53
2022-08-01T17:33:46.181Z,97504.03
2022-08-01T17:36:15.030Z,97517.84
2022-08-01T17:38:43.479Z,97513.09
2022-08-01T17:41:12.883Z,97517.31
2022-08-01T17:43:41.208Z,97517.09
2022-08-01T17:46:09.788Z,97511.69
2022-08-01T17:48:38.444Z,97515.66
2022-08-01T17:51:06.765Z,97515.03
2022-08-01T17:53:35.721Z,97521.81
2022-08-01T17:56:05.895Z,97525.53
2022-08-01T17:58:51.745Z,97529.22
2022-08-01T18:01:21.380Z,97529.25
2022-08-01T18:03:50.103Z,97524.75
2022-08-01T18:06:23.430Z,97529.25
2022-08-01T18:08:55.325Z,97533.66
2022-08-01T18:11:27.411Z,97528.59
2022-08-01T18:13:59.569Z,97535.03
2022-08-01T18:16:28.015Z,97526.69
2022-08-01T18:18:56.530Z,97531.81
2022-08-01T18:21:24.946Z,97545.75
2022-08-01T18:23:52.903Z,97548.63
2022-08-01T18:26:21.753Z,97550.25
2022-08-01T18:28:49.764Z,97548.31
2022-08-01T18:31:20.965Z,97551.47
2022-08-01T18:33:49.014Z,97548.31
2022-08-01T18:36:32.410Z,97554.69
2022-08-01T18:39:04.421Z,97562.63
2022-08-01T18:41:33.402Z,97557.88
2022-08-01T18:44:05.763Z,97560.25
2022-08-01T18:46:39.090Z,97567.00
2022-08-01T18:49:08.775Z,97563.00
2022-08-01T18:51:43.481Z,97563.78
2022-08-01T18:54:12.565Z,97573.69
2022-08-01T18:56:40.900Z,97572.47
2022-08-01T18:59:08.934Z,97581.13
2022-08-01T19:01:40.069Z,97583.50
2022-08-01T19:04:08.751Z,97583.50
2022-08-01T19:06:37.256Z,97583.84
2022-08-01T19:09:05.808Z,97585.81
2022-08-01T19:11:35.902Z,97585.75
2022-08-01T19:14:04.292Z,97588.50
2022-08-01T19:16:32.938Z,97596.78
2022-08-01T19:19:04.750Z,97593.63
2022-08-01T19:21:33.045Z,97596.34
2022-08-01T19:24:23.367Z,97600.72
2022-08-01T19:26:54.786Z,97599.09
2022-08-01T19:29:35.235Z,97606.16
2022-08-01T19:32:06.014Z,97606.53
2022-08-01T19:34:37.549Z,97604.78
2022-08-01T19:37:06.179Z,97606.72
2022-08-01T19:39:34.398Z,97617.59
2022-08-01T19:42:04.425Z,97607.22
2022-08-01T19:44:33.427Z,97603.16
2022-08-01T19:47:03.349Z,97616.03
2022-08-01T19:49:31.494Z,97615.22
2022-08-01T19:52:02.855Z,97618.28
2022-08-01T19:54:35.974Z,97623.34
2022-08-01T19:57:06.973Z,97621.84
2022-08-01T19:59:36.384Z,97629.19
2022-08-01T20:02:05.829Z,97627.50
2022-08-01T20:04:34.786Z,97624.28
2022-08-01T20:07:04.716Z,97624.63
2022-08-01T20:09:33.825Z,97633.56
2022-08-01T20:12:01.762Z,97638.44
2022-08-01T20:14:31.496Z,97630.06
2022-08-01T20:16:59.559Z,97637.84
2022-08-01T20:19:29.862Z,97639.34
2022-08-01T20:22:02.478Z,97638.03
2022-08-01T20:24:39.531Z,97631.63
2022-08-01T20:27:11.830Z,97633.34
2022-08-01T20:29:40.918Z,97632.44
2022-08-01T20:32:09.817Z,97643.38
2022-08-01T20:34:40.270Z,97632.34
2022-08-01T20:37:12.843Z,97633.66
2022-08-01T20:39:45.130Z,97647.78
2022-08-01T20:42:14.297Z,97637.47
2022-08-01T20:44:43.081Z,97635.41
2022-08-01T20:47:11.342Z,97645.59
2022-08-01T20:49:39.713Z,97637.28
2022-08-01T20:52:11.702Z,97636.31
2022-08-01T20:54:42.093Z,97643.25
2022-08-01T20:57:17.064Z,97650.50
2022-08-01T20:59:56.788Z,97651.16
2022-08-01T21:02:35.757Z,97647.91
2022-08-01T21:05:06.331Z,97649.28
2022-08-01T21:07:39.810Z,97660.69
2022-08-01T21:10:09.668Z,97665.84
2022-08-01T21:12:49.542Z,97664.72
2022-08-01T21:15:30.890Z,97665.84
2022-08-01T21:18:03.762Z,97659.09
2022-08-01T21:20:34.768Z,97663.44
2022-08-01T21:23:14.818Z,97663.38
2022-08-01T21:25:44.061Z,97661.16
2022-08-01T21:28:16.037Z,97667.41
2022-08-01T21:30:55.632Z,97671.25
2022-08-01T21:33:24.451Z,97671.31
2022-08-01T21:35:55.966Z,97682.09
2022-08-01T21:38:24.822Z,97676.25
2022-08-01T21:40:54.809Z,97676.97
2022-08-01T21:43:24.405Z,97673.16
2022-08-01T21:45:58.361Z,97685.66
2022-08-01T21:48:30.860Z,97692.69
2022-08-01T21:51:01.333Z,97694.47
2022-08-01T21:53:43.207Z,97702.59
2022-08-01T21:56:23.489Z,97698.56
2022-08-01T21:59:00.506Z,97703.22
2022-08-01T22:01:50.891Z,97694.97
2022-08-01T22:04:34.552Z,97702.06
2022-08-01T22:07:04.456Z,97704.19
2022-08-01T22:09:34.159Z,97704.06
2022-08-01T22:12:07.150Z,97706.22
2022-08-01T22:14:43.142Z,97713.53
2022-08-01T22:17:15.271Z,97711.53
2022-08-01T22:19:47.022Z,97710.91
2022-08-01T22:22:50.794Z,97706.56
2022-08-01T22:25:07.931Z,97706.56
2022-08-01T22:28:02.873Z,97711.75
2022-08-01T22:30:28.473Z,97701.78
2022-08-01T22:33:15.289Z,97712.16
2022-08-01T22:35:45.673Z,97710.63
2022-08-01T22:38:14.132Z,97708.31
2022-08-01T22:40:48.970Z,97720.13
2022-08-01T22:43:25.324Z,97715.41
2022-08-01T22:46:06.979Z,97725.25
2022-08-01T22:48:43.155Z,97724.19
2022-08-01T22:51:24.706Z,97725.03
2022-08-01T22:53:59.370Z,97719.28
2022-08-01T22:56:30.450Z,97732.47
2022-08-01T22:59:03.279Z,97728.84
2022-08-01T23:01:34.142Z,97728.47
2022-08-01T23:04:03.918Z,97731.22
2022-08-01T23:06:39.731Z,97733.81
2022-08-01T23:09:10.180Z,97731.31
2022-08-01T23:11:39.260Z,97737.56
2022-08-01T23:14:08.805Z,97734.53
2022-08-01T23:16:39.307Z,97731.44
2022-08-01T23:19:10.040Z,97735.69
2022-08-01T23:21:41.902Z,97730.53
2022-08-01T23:24:10.898Z,97734.00
2022-08-01T23:26:39.298Z,97726.56
2022-08-01T23:29:09.107Z,97725.94
2022-08-01T23:31:51.754Z,97725.41
2022-08-01T23:34:26.306Z,97723.25
2022-08-01T23:36:54.713Z,97720.81
2022-08-01T23:39:22.678Z,97722.56
2022-08-01T23:41:57.743Z,97733.47
2022-08-01T23:44:26.652Z,97711.84
2022-08-01T23:46:56.406Z,97713.50
2022-08-01T23:49:24.558Z,97713.13
2022-08-01T23:51:53.054Z,97713.16
2022-08-01T23:54:21.141Z,97717.34
2022-08-01T23:56:49.553Z,97722.25
2022-08-01T23:59:17.586Z,97716.34
